Time;durP1;ratioP1;P1;durP2;ratioP2;P2;SDS_P1;SDS_P2;PMS_P1;PMS_P2;Temp;Humidity;BMP_temperature;BMP_pressure;BME280_temperature;BME280_humidity;BME280_pressure;Samples;Min_cycle;Max_cycle;Signal;HPM_P1;HPM_P2
2021/12/19 00:00:34;;;;;;;93.60;34.80;;;;;;;;;;4976618;28;20027;-76
2021/12/19 00:10:57;;;;;;;62.65;27.65;;;;;;;;;;4990044;28;20033;-74
2021/12/19 00:13:25;;;;;;;57.45;27.38;;;;;;;;;;4996482;28;20026;-75
2021/12/19 00:15:51;;;;;;;54.95;30.60;;;;;;;;;;4994325;28;20485;-78
2021/12/19 00:18:17;;;;;;;49.55;28.33;;;;;;;;;;4999573;28;20042;-75
2021/12/19 00:20:43;;;;;;;55.40;21.10;;;;;;;;;;5005526;28;20035;-76
2021/12/19 00:23:10;;;;;;;45.80;20.60;;;;;;;;;;4991893;28;20064;-74
2021/12/19 00:25:36;;;;;;;59.38;23.73;;;;;;;;;;5016815;28;20065;-75
2021/12/19 00:28:02;;;;;;;49.92;21.30;;;;;;;;;;4995753;28;20599;-75
2021/12/19 00:30:28;;;;;;;52.00;21.65;;;;;;;;;;4995572;28;20489;-76
2021/12/19 00:32:54;;;;;;;53.22;23.33;;;;;;;;;;4991412;28;20028;-75
2021/12/19 00:35:21;;;;;;;54.90;21.38;;;;;;;;;;4991441;28;20038;-75
2021/12/19 00:37:47;;;;;;;73.03;24.02;;;;;;;;;;4992610;28;20105;-75
2021/12/19 00:40:13;;;;;;;53.60;20.23;;;;;;;;;;4993977;28;20036;-74
2021/12/19 00:42:39;;;;;;;105.47;38.83;;;;;;;;;;4995362;28;20084;-75
2021/12/19 00:45:16;;;;;;;113.20;49.33;;;;;;;;;;4978447;28;20061;-75
2021/12/19 00:47:43;;;;;;;90.20;37.55;;;;;;;;;;4992295;28;20030;-76
2021/12/19 00:50:09;;;;;;;61.70;26.67;;;;;;;;;;4991463;28;20105;-75
2021/12/19 00:52:35;;;;;;;80.13;20.95;;;;;;;;;;4995146;28;20033;-73
2021/12/19 00:55:01;;;;;;;56.50;22.45;;;;;;;;;;4997600;28;20030;-76
2021/12/19 00:57:27;;;;;;;57.85;22.05;;;;;;;;;;4996037;28;20050;-75
2021/12/19 00:59:53;;;;;;;64.25;23.48;;;;;;;;;;5005754;28;20117;-76
2021/12/19 01:02:19;;;;;;;95.70;22.92;;;;;;;;;;4987453;28;20042;-76
2021/12/19 01:04:46;;;;;;;63.03;21.40;;;;;;;;;;4987975;28;20085;-77
2021/12/19 01:07:12;;;;;;;87.72;21.85;;;;;;;;;;4989281;28;20065;-77
2021/12/19 01:09:38;;;;;;;68.53;20.15;;;;;;;;;;4996214;28;20022;-75
2021/12/19 01:12:04;;;;;;;81.32;23.65;;;;;;;;;;4992554;28;20022;-76
2021/12/19 01:14:30;;;;;;;110.80;26.58;;;;;;;;;;4978602;28;20034;-76
2021/12/19 01:16:56;;;;;;;70.40;26.98;;;;;;;;;;4977748;28;20045;-77
2021/12/19 01:19:24;;;;;;;60.28;23.20;;;;;;;;;;4988735;28;20425;-76
2021/12/19 01:21:53;;;;;;;55.83;18.95;;;;;;;;;;4979088;28;20022;-77
2021/12/19 01:24:19;;;;;;;95.80;25.73;;;;;;;;;;4980834;28;20040;-76
2021/12/19 01:26:45;;;;;;;51.67;18.20;;;;;;;;;;4985469;28;20026;-76
2021/12/19 01:29:11;;;;;;;100.53;21.92;;;;;;;;;;5009298;28;20030;-75
2021/12/19 01:31:37;;;;;;;81.65;24.05;;;;;;;;;;4994876;28;20046;-74
2021/12/19 01:34:03;;;;;;;124.47;20.65;;;;;;;;;;4985127;28;20065;-76
2021/12/19 01:36:29;;;;;;;77.63;19.33;;;;;;;;;;4977699;28;20417;-76
2021/12/19 01:38:55;;;;;;;53.72;19.00;;;;;;;;;;4989777;28;20030;-73
2021/12/19 01:41:22;;;;;;;56.15;16.85;;;;;;;;;;4982122;28;20033;-75
2021/12/19 01:43:48;;;;;;;56.53;19.67;;;;;;;;;;4987889;28;20057;-75
2021/12/19 01:46:14;;;;;;;52.90;18.98;;;;;;;;;;5004354;28;20034;-75
2021/12/19 01:48:40;;;;;;;77.38;19.10;;;;;;;;;;4999858;28;20053;-75
2021/12/19 01:51:07;;;;;;;56.70;19.38;;;;;;;;;;4991579;28;20377;-74
2021/12/19 01:53:33;;;;;;;128.98;27.60;;;;;;;;;;4992382;28;20762;-75
2021/12/19 01:56:03;;;;;;;63.60;19.00;;;;;;;;;;5005963;28;20034;-75
2021/12/19 01:58:29;;;;;;;107.40;22.08;;;;;;;;;;5013137;28;20036;-75
2021/12/19 02:00:56;;;;;;;89.63;19.40;;;;;;;;;;4987041;28;20038;-74
2021/12/19 02:03:23;;;;;;;59.13;16.77;;;;;;;;;;4989311;28;20042;-75
2021/12/19 02:05:49;;;;;;;84.78;17.63;;;;;;;;;;4991380;28;20101;-76
2021/12/19 02:08:16;;;;;;;108.28;22.13;;;;;;;;;;4984833;28;20485;-75
2021/12/19 02:10:42;;;;;;;176.68;25.02;;;;;;;;;;4986613;28;20027;-76
2021/12/19 02:13:10;;;;;;;79.70;17.02;;;;;;;;;;4991610;28;20045;-76
2021/12/19 02:15:36;;;;;;;136.00;18.90;;;;;;;;;;4986248;28;20425;-75
2021/12/19 02:18:07;;;;;;;98.70;18.35;;;;;;;;;;4978369;28;20497;-73
2021/12/19 02:20:35;;;;;;;103.13;21.38;;;;;;;;;;4982674;28;20036;-75
2021/12/19 02:23:02;;;;;;;125.03;21.60;;;;;;;;;;4994641;28;20046;-75
2021/12/19 02:25:28;;;;;;;159.30;26.13;;;;;;;;;;4995058;28;20038;-76
2021/12/19 02:27:54;;;;;;;218.75;29.00;;;;;;;;;;4993758;28;20036;-74
2021/12/19 02:30:20;;;;;;;192.65;26.75;;;;;;;;;;4981890;28;20055;-76
2021/12/19 02:32:47;;;;;;;166.65;28.13;;;;;;;;;;4986147;28;20023;-75
2021/12/19 02:35:19;;;;;;;185.20;26.42;;;;;;;;;;4994885;28;20061;-75
2021/12/19 02:48:18;;;;;;;218.80;28.73;;;;;;;;;;4994612;28;20500;-75
2021/12/19 02:50:48;;;;;;;126.57;20.67;;;;;;;;;;4993069;28;20027;-75
2021/12/19 02:53:17;;;;;;;115.55;20.00;;;;;;;;;;4977220;28;20023;-76
2021/12/19 02:55:43;;;;;;;160.73;24.02;;;;;;;;;;5015281;28;20054;-75
2021/12/19 02:58:10;;;;;;;191.30;25.85;;;;;;;;;;5008273;28;20599;-74
2021/12/19 03:00:36;;;;;;;98.43;20.38;;;;;;;;;;4993312;28;20038;-76
2021/12/19 03:03:02;;;;;;;150.55;21.42;;;;;;;;;;4978091;28;20049;-77
2021/12/19 03:05:31;;;;;;;118.75;21.02;;;;;;;;;;4996933;28;20037;-75
2021/12/19 03:07:58;;;;;;;114.97;21.02;;;;;;;;;;4992329;28;20034;-74
2021/12/19 03:11:02;;;;;;;120.38;24.30;;;;;;;;;;4981914;28;20437;-76
2021/12/19 03:18:31;;;;;;;170.63;26.23;;;;;;;;;;4980937;28;20049;-74
2021/12/19 03:20:58;;;;;;;166.85;25.58;;;;;;;;;;4977721;28;20490;-75
2021/12/19 03:23:24;;;;;;;94.25;21.65;;;;;;;;;;4998367;28;20094;-76
2021/12/19 03:25:53;;;;;;;124.40;22.30;;;;;;;;;;4990730;28;20118;-74
2021/12/19 03:28:19;;;;;;;162.90;23.67;;;;;;;;;;4984162;28;20029;-75
2021/12/19 03:30:46;;;;;;;142.35;26.27;;;;;;;;;;4996214;28;20093;-75
2021/12/19 03:33:13;;;;;;;112.80;20.85;;;;;;;;;;4982530;28;20098;-75
2021/12/19 03:35:40;;;;;;;101.70;19.92;;;;;;;;;;4989325;28;20549;-74
2021/12/19 03:38:07;;;;;;;103.88;20.85;;;;;;;;;;4992360;28;20035;-76
2021/12/19 03:40:39;;;;;;;124.15;25.52;;;;;;;;;;4988829;28;20037;-76
2021/12/19 03:43:10;;;;;;;126.90;24.65;;;;;;;;;;4989763;28;21486;-76
2021/12/19 03:45:37;;;;;;;68.13;20.63;;;;;;;;;;4999644;28;20030;-76
2021/12/19 03:48:04;;;;;;;65.38;18.85;;;;;;;;;;4983387;28;20054;-74
2021/12/19 03:50:32;;;;;;;87.78;20.48;;;;;;;;;;5001659;28;20092;-75
2021/12/19 03:52:59;;;;;;;66.25;19.23;;;;;;;;;;5007282;28;20101;-75
2021/12/19 03:55:26;;;;;;;48.50;17.90;;;;;;;;;;4982526;28;20042;-76
2021/12/19 03:57:53;;;;;;;70.93;19.38;;;;;;;;;;4983148;28;20085;-74
2021/12/19 04:00:24;;;;;;;65.65;18.75;;;;;;;;;;4984319;28;20137;-75
2021/12/19 04:02:53;;;;;;;47.80;18.80;;;;;;;;;;4976757;28;20038;-76
2021/12/19 04:05:19;;;;;;;46.85;17.88;;;;;;;;;;4978200;28;20093;-75
2021/12/19 04:07:45;;;;;;;61.20;19.75;;;;;;;;;;5004052;28;20041;-75
2021/12/19 04:10:11;;;;;;;35.63;15.75;;;;;;;;;;4981916;28;20027;-76
2021/12/19 04:12:38;;;;;;;62.72;20.45;;;;;;;;;;4989889;28;20058;-75
2021/12/19 04:15:07;;;;;;;44.90;17.48;;;;;;;;;;4999286;28;20150;-75
2021/12/19 04:17:33;;;;;;;31.73;14.85;;;;;;;;;;4995529;28;20109;-75
2021/12/19 04:20:00;;;;;;;39.08;16.08;;;;;;;;;;4989093;28;20109;-76
2021/12/19 04:22:26;;;;;;;34.55;15.40;;;;;;;;;;4987082;28;20042;-76
2021/12/19 04:24:53;;;;;;;29.13;13.40;;;;;;;;;;4976770;28;20548;-74
2021/12/19 04:27:19;;;;;;;34.65;14.40;;;;;;;;;;4977131;28;20448;-75
2021/12/19 04:29:45;;;;;;;24.50;13.63;;;;;;;;;;4995047;28;20027;-75
2021/12/19 04:32:12;;;;;;;44.92;16.95;;;;;;;;;;4984002;28;20026;-75
2021/12/19 04:34:38;;;;;;;29.55;15.63;;;;;;;;;;4989666;28;20069;-76
2021/12/19 04:37:24;;;;;;;27.05;13.40;;;;;;;;;;4975086;28;20094;-76
2021/12/19 04:40:01;;;;;;;;;;;;;;;;;;4994749;28;20031;-76
2021/12/19 04:53:46;;;;;;;106.00;37.50;;;;;;;;;;4978158;28;20409;-75
2021/12/19 04:56:27;;;;;;;49.05;22.80;;;;;;;;;;4974833;28;20073;-77
2021/12/19 05:14:34;;;;;;;34.58;20.35;;;;;;;;;;4981378;28;20037;-77
2021/12/19 05:17:05;;;;;;;30.00;15.27;;;;;;;;;;4997076;28;20029;-76
2021/12/19 05:19:45;;;;;;;19.35;13.15;;;;;;;;;;4999032;28;20048;-76
2021/12/19 05:22:11;;;;;;;21.85;11.85;;;;;;;;;;5005221;28;20057;-76
2021/12/19 05:27:04;;;;;;;28.15;15.00;;;;;;;;;;4978466;28;20621;-76
2021/12/19 05:29:31;;;;;;;24.98;13.90;;;;;;;;;;4989245;28;20031;-76
2021/12/19 05:31:57;;;;;;;29.58;15.75;;;;;;;;;;4978397;28;20485;-74
2021/12/19 05:34:23;;;;;;;31.33;14.60;;;;;;;;;;4990649;28;20037;-75
2021/12/19 05:47:36;;;;;;;23.02;13.10;;;;;;;;;;5007936;28;20088;-75
2021/12/19 05:50:03;;;;;;;25.60;13.63;;;;;;;;;;4995738;28;20029;-74
2021/12/19 05:52:29;;;;;;;26.23;13.13;;;;;;;;;;4993417;28;20054;-76
2021/12/19 05:54:56;;;;;;;30.92;13.85;;;;;;;;;;4978029;28;20038;-77
2021/12/19 05:57:22;;;;;;;26.52;13.35;;;;;;;;;;4986485;28;20066;-74
2021/12/19 05:59:48;;;;;;;24.02;13.95;;;;;;;;;;4986963;28;20038;-76
2021/12/19 06:02:14;;;;;;;30.23;13.13;;;;;;;;;;4979514;28;20030;-75
2021/12/19 06:04:40;;;;;;;31.95;13.25;;;;;;;;;;4986037;28;20473;-74
2021/12/19 06:07:06;;;;;;;30.58;12.57;;;;;;;;;;4985766;28;20035;-74
2021/12/19 06:09:32;;;;;;;25.30;13.40;;;;;;;;;;5004819;28;20026;-76
2021/12/19 06:11:58;;;;;;;33.60;12.77;;;;;;;;;;4997434;28;20026;-73
2021/12/19 06:14:31;;;;;;;26.85;14.88;;;;;;;;;;4997577;28;20069;-76
2021/12/19 06:16:57;;;;;;;25.77;12.45;;;;;;;;;;4995073;28;20053;-74
2021/12/19 06:19:23;;;;;;;31.20;13.43;;;;;;;;;;4988882;28;20087;-74
2021/12/19 06:21:49;;;;;;;27.52;14.43;;;;;;;;;;5007568;28;20022;-74
2021/12/19 06:24:15;;;;;;;23.40;12.27;;;;;;;;;;4997189;28;20516;-76
2021/12/19 06:26:41;;;;;;;31.27;16.05;;;;;;;;;;5009293;28;20378;-73
2021/12/19 06:29:07;;;;;;;27.23;14.07;;;;;;;;;;5000459;28;20033;-75
2021/12/19 06:31:33;;;;;;;29.63;15.48;;;;;;;;;;4997043;28;20027;-75
2021/12/19 06:33:59;;;;;;;30.17;14.82;;;;;;;;;;4997308;28;20037;-74
2021/12/19 06:36:25;;;;;;;24.90;13.43;;;;;;;;;;4996831;28;20026;-74
2021/12/19 06:38:52;;;;;;;29.90;15.57;;;;;;;;;;4997805;28;20474;-76
2021/12/19 06:41:19;;;;;;;29.17;13.32;;;;;;;;;;4997346;28;20026;-75
2021/12/19 06:43:45;;;;;;;26.42;14.40;;;;;;;;;;4996447;28;20035;-76
2021/12/19 06:46:11;;;;;;;26.42;12.73;;;;;;;;;;5000551;28;20105;-76
2021/12/19 06:48:37;;;;;;;26.88;13.55;;;;;;;;;;5000369;28;20049;-75
2021/12/19 06:51:04;;;;;;;33.40;15.00;;;;;;;;;;4995561;28;20022;-73
2021/12/19 06:53:30;;;;;;;28.88;14.68;;;;;;;;;;4998938;28;20101;-77
2021/12/19 06:55:56;;;;;;;36.20;14.82;;;;;;;;;;4998297;28;20389;-77
2021/12/19 06:58:23;;;;;;;28.50;13.88;;;;;;;;;;5009764;28;20033;-73
2021/12/19 07:00:49;;;;;;;28.20;14.30;;;;;;;;;;4998529;28;20038;-75
2021/12/19 07:03:16;;;;;;;26.48;14.02;;;;;;;;;;4997332;28;20034;-76
2021/12/19 07:05:42;;;;;;;28.08;15.75;;;;;;;;;;5004396;28;20030;-74
2021/12/19 07:08:09;;;;;;;29.13;15.52;;;;;;;;;;4995817;28;20044;-77
2021/12/19 07:10:35;;;;;;;23.52;14.20;;;;;;;;;;4996205;28;20500;-77
2021/12/19 07:13:01;;;;;;;28.77;15.05;;;;;;;;;;4996145;28;20031;-74
2021/12/19 07:15:27;;;;;;;31.88;16.02;;;;;;;;;;5007585;28;20053;-77
2021/12/19 07:17:55;;;;;;;40.15;18.98;;;;;;;;;;5006226;28;20102;-76
2021/12/19 07:20:21;;;;;;;30.40;14.13;;;;;;;;;;4996213;28;20482;-76
2021/12/19 07:22:47;;;;;;;41.53;19.77;;;;;;;;;;4995807;28;20030;-76
2021/12/19 07:25:13;;;;;;;40.97;17.83;;;;;;;;;;4997643;28;20030;-76
2021/12/19 07:27:39;;;;;;;33.55;16.25;;;;;;;;;;5009045;28;20393;-77
2021/12/19 07:30:06;;;;;;;33.85;16.00;;;;;;;;;;4998324;28;20109;-76
2021/12/19 07:32:34;;;;;;;29.38;14.52;;;;;;;;;;4995968;28;20030;-76
2021/12/19 07:35:00;;;;;;;30.77;16.10;;;;;;;;;;4997098;28;20041;-75
2021/12/19 07:37:26;;;;;;;30.75;14.35;;;;;;;;;;4995982;28;20026;-75
2021/12/19 07:40:03;;;;;;;40.72;19.80;;;;;;;;;;4996035;28;20405;-76
2021/12/19 07:42:29;;;;;;;32.50;16.00;;;;;;;;;;4994954;28;20022;-73
2021/12/19 07:44:55;;;;;;;34.95;15.65;;;;;;;;;;4996310;28;20495;-76
2021/12/19 07:47:22;;;;;;;29.27;14.57;;;;;;;;;;4996274;28;20050;-76
2021/12/19 07:49:48;;;;;;;28.23;14.10;;;;;;;;;;5006778;28;20061;-75
2021/12/19 07:52:14;;;;;;;31.08;16.35;;;;;;;;;;4997590;28;20471;-76
2021/12/19 07:54:40;;;;;;;30.42;14.75;;;;;;;;;;4996547;28;20485;-73
2021/12/19 07:57:06;;;;;;;30.60;13.90;;;;;;;;;;4997406;28;20453;-76
2021/12/19 07:59:32;;;;;;;28.58;13.48;;;;;;;;;;4995554;28;20450;-76
2021/12/19 08:01:58;;;;;;;33.08;15.40;;;;;;;;;;4995640;28;20073;-75
2021/12/19 08:04:24;;;;;;;29.65;14.95;;;;;;;;;;4995127;28;20030;-78
2021/12/19 08:06:50;;;;;;;35.10;16.20;;;;;;;;;;4995567;28;20078;-75
2021/12/19 08:09:37;;;;;;;30.67;15.57;;;;;;;;;;5006065;28;20022;-74
2021/12/19 08:12:04;;;;;;;27.42;14.77;;;;;;;;;;4995497;28;20018;-76
2021/12/19 08:14:30;;;;;;;31.95;13.93;;;;;;;;;;4995980;28;20390;-74
2021/12/19 08:16:56;;;;;;;31.85;16.30;;;;;;;;;;5004431;28;20147;-75
2021/12/19 08:19:23;;;;;;;31.80;14.48;;;;;;;;;;4995445;28;20473;-74
2021/12/19 08:21:49;;;;;;;32.70;16.70;;;;;;;;;;4995089;28;20109;-76
2021/12/19 08:24:15;;;;;;;36.70;15.82;;;;;;;;;;5006209;28;20548;-75
2021/12/19 08:26:42;;;;;;;37.60;15.27;;;;;;;;;;5002971;28;20030;-73
2021/12/19 08:29:08;;;;;;;32.20;15.02;;;;;;;;;;4994706;28;20031;-75
2021/12/19 08:31:35;;;;;;;35.63;15.95;;;;;;;;;;4994997;28;20049;-75
2021/12/19 08:34:01;;;;;;;30.08;14.05;;;;;;;;;;5004081;28;20493;-76
2021/12/19 08:36:27;;;;;;;32.78;15.05;;;;;;;;;;4995145;28;20398;-74
2021/12/19 08:38:53;;;;;;;35.38;16.70;;;;;;;;;;5003274;28;20026;-77
2021/12/19 08:41:20;;;;;;;37.33;16.30;;;;;;;;;;5001189;28;20039;-74
2021/12/19 08:43:46;;;;;;;32.13;16.00;;;;;;;;;;5001208;28;20425;-76
2021/12/19 08:46:13;;;;;;;43.45;18.88;;;;;;;;;;4999080;28;20029;-75
2021/12/19 08:48:39;;;;;;;42.67;19.92;;;;;;;;;;5004399;28;20030;-75
2021/12/19 08:51:05;;;;;;;42.22;16.90;;;;;;;;;;5000340;28;20159;-73
2021/12/19 08:53:31;;;;;;;36.28;16.98;;;;;;;;;;4998443;28;20175;-77
2021/12/19 08:55:57;;;;;;;37.05;17.08;;;;;;;;;;5005875;28;20022;-77
2021/12/19 08:58:23;;;;;;;43.90;18.60;;;;;;;;;;4998624;28;20038;-74
2021/12/19 09:00:50;;;;;;;37.47;17.35;;;;;;;;;;5004892;28;20504;-76
2021/12/19 09:03:17;;;;;;;40.75;18.58;;;;;;;;;;5002590;28;20540;-76
2021/12/19 09:05:43;;;;;;;39.50;17.35;;;;;;;;;;5011061;28;20030;-76
2021/12/19 09:08:09;;;;;;;33.05;16.60;;;;;;;;;;4998896;28;20125;-75
2021/12/19 09:10:36;;;;;;;41.47;17.08;;;;;;;;;;5003771;28;20030;-76
2021/12/19 09:13:02;;;;;;;59.53;24.48;;;;;;;;;;5004291;28;20030;-77
2021/12/19 09:15:28;;;;;;;65.43;25.45;;;;;;;;;;4999077;28;20027;-77
2021/12/19 09:17:54;;;;;;;46.05;20.95;;;;;;;;;;4998513;28;20100;-76
2021/12/19 09:20:20;;;;;;;59.90;20.90;;;;;;;;;;4998081;28;20067;-75
2021/12/19 09:22:46;;;;;;;85.07;21.70;;;;;;;;;;4998471;28;20473;-76
2021/12/19 09:25:12;;;;;;;99.78;23.83;;;;;;;;;;5000222;28;20061;-76
2021/12/19 09:27:39;;;;;;;155.52;29.30;;;;;;;;;;4997828;28;20084;-76
2021/12/19 09:30:05;;;;;;;221.05;33.50;;;;;;;;;;5004406;28;20026;-78
2021/12/19 09:32:31;;;;;;;180.05;30.75;;;;;;;;;;4997652;28;20031;-76
2021/12/19 09:34:57;;;;;;;209.50;34.03;;;;;;;;;;4997430;28;20077;-77
2021/12/19 09:37:24;;;;;;;101.18;24.35;;;;;;;;;;4999009;28;20110;-76
2021/12/19 09:39:51;;;;;;;61.58;20.50;;;;;;;;;;4997974;28;20022;-76
2021/12/19 09:42:20;;;;;;;56.20;21.60;;;;;;;;;;4997719;28;20026;-75
2021/12/19 09:44:46;;;;;;;51.28;19.95;;;;;;;;;;5004213;28;20177;-74
2021/12/19 09:47:12;;;;;;;39.45;15.52;;;;;;;;;;4998761;28;20500;-78
2021/12/19 09:49:39;;;;;;;38.05;15.52;;;;;;;;;;5005587;28;20110;-74
2021/12/19 09:52:07;;;;;;;39.95;15.55;;;;;;;;;;5020707;28;20018;-75
2021/12/19 09:54:35;;;;;;;40.88;16.60;;;;;;;;;;5006265;28;20014;-78
2021/12/19 09:57:01;;;;;;;41.47;17.38;;;;;;;;;;5001056;28;20109;-76
2021/12/19 09:59:27;;;;;;;41.03;17.02;;;;;;;;;;5001085;28;20026;-75
2021/12/19 10:01:54;;;;;;;39.00;15.48;;;;;;;;;;5000933;28;20058;-77
2021/12/19 10:04:38;;;;;;;47.50;17.88;;;;;;;;;;5032426;28;20474;-77
2021/12/19 10:07:06;;;;;;;34.10;16.15;;;;;;;;;;4986194;28;20042;-78
2021/12/19 10:09:33;;;;;;;36.50;15.68;;;;;;;;;;4999515;28;20027;-75
2021/12/19 10:12:22;;;;;;;41.42;16.20;;;;;;;;;;5000483;28;20106;-76
2021/12/19 10:14:48;;;;;;;39.38;16.73;;;;;;;;;;5000815;28;20026;-75
2021/12/19 10:17:18;;;;;;;43.72;18.98;;;;;;;;;;5000621;28;20030;-76
2021/12/19 10:19:44;;;;;;;42.50;17.85;;;;;;;;;;5000150;28;20388;-77
2021/12/19 10:22:29;;;;;;;44.67;18.15;;;;;;;;;;5001578;28;20032;-76
2021/12/19 10:24:56;;;;;;;44.08;19.45;;;;;;;;;;5001820;28;20022;-74
2021/12/19 10:27:36;;;;;;;44.80;19.38;;;;;;;;;;5000915;28;20081;-76
2021/12/19 10:30:10;;;;;;;45.58;17.13;;;;;;;;;;5001636;28;20050;-74
2021/12/19 10:32:36;;;;;;;46.65;16.85;;;;;;;;;;5002039;28;20026;-76
2021/12/19 10:35:13;;;;;;;43.03;17.60;;;;;;;;;;4982125;28;20042;-76
2021/12/19 10:37:39;;;;;;;44.90;18.38;;;;;;;;;;4998189;28;20109;-74
2021/12/19 10:40:06;;;;;;;45.85;20.73;;;;;;;;;;5007650;28;20030;-74
2021/12/19 10:42:43;;;;;;;45.45;17.73;;;;;;;;;;5006300;28;20030;-73
2021/12/19 10:48:08;;;;;;;45.78;19.98;;;;;;;;;;5000919;28;20045;-76
2021/12/19 10:50:52;;;;;;;41.42;18.70;;;;;;;;;;5001770;28;20033;-75
2021/12/19 10:53:19;;;;;;;45.30;19.23;;;;;;;;;;5001518;28;20022;-74
2021/12/19 10:55:47;;;;;;;48.67;19.50;;;;;;;;;;5001188;28;20061;-77
2021/12/19 10:58:27;;;;;;;41.40;19.27;;;;;;;;;;4999214;28;20378;-75
2021/12/19 11:00:54;;;;;;;43.47;18.80;;;;;;;;;;4999707;28;20026;-77
2021/12/19 11:03:47;;;;;;;46.85;18.95;;;;;;;;;;5001693;28;20492;-75
2021/12/19 11:06:18;;;;;;;43.33;18.00;;;;;;;;;;5006733;28;20062;-73
2021/12/19 11:08:45;;;;;;;50.63;20.70;;;;;;;;;;4995083;28;20073;-76
2021/12/19 11:11:12;;;;;;;49.13;19.35;;;;;;;;;;4998600;28;20019;-76
2021/12/19 11:13:38;;;;;;;43.47;18.67;;;;;;;;;;4997610;28;20382;-76
2021/12/19 11:16:05;;;;;;;41.55;18.58;;;;;;;;;;4998946;28;20023;-74
2021/12/19 11:18:31;;;;;;;47.55;20.48;;;;;;;;;;5000192;28;20038;-75
2021/12/19 11:20:57;;;;;;;44.53;20.38;;;;;;;;;;4999898;28;20033;-76
2021/12/19 11:23:26;;;;;;;44.38;20.33;;;;;;;;;;5000296;28;20026;-74
2021/12/19 11:25:53;;;;;;;46.45;19.40;;;;;;;;;;5000085;28;20023;-74
2021/12/19 11:28:20;;;;;;;51.47;21.38;;;;;;;;;;4998946;28;20030;-76
2021/12/19 11:30:47;;;;;;;42.97;20.65;;;;;;;;;;4998419;28;20061;-77
2021/12/19 11:33:19;;;;;;;47.25;20.88;;;;;;;;;;5000588;28;20034;-73
2021/12/19 11:35:47;;;;;;;48.30;20.02;;;;;;;;;;4999513;28;20118;-76
2021/12/19 11:38:13;;;;;;;48.55;21.70;;;;;;;;;;5000509;28;20097;-75
2021/12/19 11:40:40;;;;;;;49.17;21.88;;;;;;;;;;5000373;28;20101;-77
2021/12/19 11:43:12;;;;;;;45.88;21.40;;;;;;;;;;4999051;28;20038;-75
2021/12/19 11:45:56;;;;;;;43.97;20.90;;;;;;;;;;5000663;28;20045;-74
2021/12/19 11:48:28;;;;;;;44.63;22.10;;;;;;;;;;5000189;28;20081;-73
2021/12/19 11:50:55;;;;;;;48.70;20.08;;;;;;;;;;4997190;28;20015;-74
2021/12/19 11:53:35;;;;;;;45.10;20.45;;;;;;;;;;4999032;28;20014;-75
2021/12/19 11:56:09;;;;;;;49.63;22.23;;;;;;;;;;4998100;28;20036;-76
2021/12/19 11:58:46;;;;;;;48.45;21.80;;;;;;;;;;4999409;28;20040;-76
2021/12/19 12:01:21;;;;;;;55.85;23.20;;;;;;;;;;5000834;28;20093;-74
2021/12/19 12:03:47;;;;;;;;;;;;;;;;;;5002228;28;20057;-75
2021/12/19 12:06:14;;;;;;;;;;;;;;;;;;5003536;28;19962;-76
2021/12/19 12:09:00;;;;;;;52.75;24.42;;;;;;;;;;5004493;28;19910;-76
2021/12/19 12:11:26;;;;;;;;;;;;;;;;;;5002439;28;20026;-76
2021/12/19 12:13:52;;;;;;;;;;;;;;;;;;5006888;28;19964;-77
2021/12/19 12:16:29;;;;;;;43.70;20.30;;;;;;;;;;5006884;28;20357;-73
2021/12/19 12:19:00;;;;;;;52.95;23.10;;;;;;;;;;5006048;28;20042;-77
2021/12/19 12:21:31;;;;;;;47.10;22.17;;;;;;;;;;5005030;28;20033;-76
2021/12/19 12:24:02;;;;;;;41.60;21.75;;;;;;;;;;5005332;28;20050;-74
2021/12/19 12:26:36;;;;;;;49.90;22.25;;;;;;;;;;5005892;28;20022;-75
2021/12/19 12:29:03;;;;;;;53.92;21.48;;;;;;;;;;5004449;28;20107;-77
2021/12/19 12:31:33;;;;;;;42.70;21.88;;;;;;;;;;5005778;28;20492;-73
2021/12/19 12:34:02;;;;;;;48.38;21.27;;;;;;;;;;5005865;28;20069;-75
2021/12/19 12:36:28;;;;;;;51.80;25.05;;;;;;;;;;5006828;28;20504;-75
2021/12/19 12:38:54;;;;;;;47.03;19.45;;;;;;;;;;5007498;28;20057;-73
2021/12/19 12:42:00;;;;;;;44.90;21.23;;;;;;;;;;5005549;28;20026;-75
2021/12/19 12:44:18;;;;;;;53.35;21.63;;;;;;;;;;5003380;28;20080;-74
2021/12/19 12:46:44;;;;;;;51.85;20.02;;;;;;;;;;5006996;28;20041;-72
2021/12/19 12:49:14;;;;;;;42.00;19.15;;;;;;;;;;5002037;28;20030;-75
2021/12/19 12:51:45;;;;;;;47.10;20.65;;;;;;;;;;5003474;28;20057;-73
2021/12/19 12:54:22;;;;;;;51.97;23.23;;;;;;;;;;5003843;28;20061;-73
2021/12/19 12:56:52;;;;;;;49.85;21.25;;;;;;;;;;5002919;28;20050;-77
2021/12/19 12:59:23;;;;;;;57.67;25.10;;;;;;;;;;5003944;28;20440;-77
2021/12/19 13:01:55;;;;;;;49.90;22.33;;;;;;;;;;5007488;28;20026;-73
2021/12/19 13:04:25;;;;;;;43.35;20.92;;;;;;;;;;5009400;28;20026;-73
2021/12/19 13:06:51;;;;;;;46.33;20.10;;;;;;;;;;5006374;28;20101;-76
2021/12/19 13:09:17;;;;;;;42.40;18.83;;;;;;;;;;5007514;28;20031;-73
2021/12/19 13:11:44;;;;;;;44.88;21.27;;;;;;;;;;5008403;28;20477;-77
2021/12/19 13:14:17;;;;;;;49.58;22.42;;;;;;;;;;5009144;28;20105;-77
2021/12/19 13:16:44;;;;;;;48.25;23.67;;;;;;;;;;5009617;28;20102;-76
2021/12/19 13:19:10;;;;;;;50.10;22.42;;;;;;;;;;5010571;28;20054;-74
2021/12/19 13:21:55;;;;;;;45.33;21.02;;;;;;;;;;5035180;28;20034;-73
2021/12/19 13:24:24;;;;;;;45.47;22.90;;;;;;;;;;5007673;28;20022;-74
2021/12/19 13:27:02;;;;;;;48.50;23.38;;;;;;;;;;5008862;28;20029;-74
2021/12/19 13:29:31;;;;;;;52.05;22.02;;;;;;;;;;5008411;28;20026;-75
2021/12/19 13:32:16;;;;;;;43.10;21.85;;;;;;;;;;5008503;28;20076;-73
2021/12/19 13:34:42;;;;;;;39.13;20.97;;;;;;;;;;5007231;28;20050;-73
2021/12/19 13:37:08;;;;;;;43.35;20.42;;;;;;;;;;5007030;28;20030;-75
2021/12/19 13:39:34;;;;;;;44.92;20.92;;;;;;;;;;5003217;28;20069;-74
2021/12/19 13:42:11;;;;;;;40.47;20.98;;;;;;;;;;5007433;28;20046;-74
2021/12/19 13:44:37;;;;;;;43.33;21.77;;;;;;;;;;5008117;28;20018;-74
2021/12/19 13:47:23;;;;;;;49.22;21.17;;;;;;;;;;5014499;28;20096;-75
2021/12/19 13:49:50;;;;;;;38.20;19.13;;;;;;;;;;5027528;28;20033;-75
2021/12/19 13:52:16;;;;;;;42.55;22.85;;;;;;;;;;5027336;28;20504;-79
2021/12/19 13:54:43;;;;;;;50.17;22.75;;;;;;;;;;5003582;28;20475;-75
2021/12/19 13:57:20;;;;;;;42.70;22.05;;;;;;;;;;5006579;28;20046;-76
2021/12/19 13:59:46;;;;;;;36.08;18.52;;;;;;;;;;5007221;28;20050;-76
2021/12/19 14:02:12;;;;;;;41.70;20.52;;;;;;;;;;5007079;28;20030;-74
2021/12/19 14:04:40;;;;;;;49.17;23.48;;;;;;;;;;5007514;28;20052;-75
2021/12/19 14:07:11;;;;;;;62.25;28.50;;;;;;;;;;5022022;28;20037;-75
2021/12/19 14:09:41;;;;;;;88.50;39.35;;;;;;;;;;5008379;28;20026;-77
2021/12/19 14:12:23;;;;;;;70.60;33.78;;;;;;;;;;5007052;28;20390;-74
2021/12/19 14:14:50;;;;;;;40.63;20.52;;;;;;;;;;5006502;28;20101;-74
2021/12/19 14:17:16;;;;;;;32.80;19.35;;;;;;;;;;5006483;28;20035;-75
2021/12/19 14:19:43;;;;;;;40.33;18.42;;;;;;;;;;5006948;28;20026;-72
2021/12/19 14:22:11;;;;;;;39.92;19.15;;;;;;;;;;5004151;28;20032;-75
2021/12/19 14:24:42;;;;;;;42.50;21.85;;;;;;;;;;5002543;28;20098;-75
2021/12/19 14:27:22;;;;;;;39.45;20.63;;;;;;;;;;5002234;28;20029;-77
2021/12/19 14:29:57;;;;;;;57.55;25.42;;;;;;;;;;5002225;28;20023;-77
2021/12/19 14:32:23;;;;;;;54.72;24.30;;;;;;;;;;5004619;28;20030;-76
2021/12/19 14:34:54;;;;;;;47.88;22.35;;;;;;;;;;5001902;28;20018;-74
2021/12/19 14:37:20;;;;;;;46.92;19.27;;;;;;;;;;4997012;28;20034;-76
2021/12/19 14:40:05;;;;;;;50.60;22.58;;;;;;;;;;4999585;28;20022;-76
2021/12/19 14:42:32;;;;;;;47.53;22.23;;;;;;;;;;4998830;28;20058;-76
2021/12/19 14:45:00;;;;;;;50.03;22.05;;;;;;;;;;4999099;28;20023;-76
2021/12/19 14:47:35;;;;;;;41.17;20.70;;;;;;;;;;4999246;28;20030;-76
2021/12/19 14:50:21;;;;;;;44.78;21.52;;;;;;;;;;4998925;28;20500;-74
2021/12/19 14:52:56;;;;;;;40.15;19.90;;;;;;;;;;4998956;28;20050;-76
2021/12/19 14:55:25;;;;;;;44.90;21.00;;;;;;;;;;4998984;28;20022;-76
2021/12/19 14:57:53;;;;;;;44.88;22.40;;;;;;;;;;4999347;28;20046;-75
2021/12/19 15:00:20;;;;;;;55.40;28.13;;;;;;;;;;4999729;28;20030;-75
2021/12/19 15:02:46;;;;;;;48.83;24.83;;;;;;;;;;4998958;28;20230;-74
2021/12/19 15:05:12;;;;;;;50.95;23.80;;;;;;;;;;4999045;28;20030;-76
2021/12/19 15:07:46;;;;;;;48.97;24.77;;;;;;;;;;4998404;28;20118;-76
2021/12/19 15:10:13;;;;;;;51.33;23.45;;;;;;;;;;4994237;28;20027;-77
2021/12/19 15:12:39;;;;;;;42.05;20.00;;;;;;;;;;4979580;28;20035;-74
2021/12/19 15:15:06;;;;;;;45.03;20.13;;;;;;;;;;4979081;28;20461;-75
2021/12/19 15:17:32;;;;;;;41.00;20.45;;;;;;;;;;4986563;28;20485;-75
2021/12/19 15:19:59;;;;;;;39.97;21.02;;;;;;;;;;4997864;28;20492;-73
2021/12/19 15:22:25;;;;;;;49.78;22.13;;;;;;;;;;4997675;28;20042;-77
2021/12/19 15:24:51;;;;;;;63.08;28.70;;;;;;;;;;4989130;28;20153;-74
2021/12/19 15:27:18;;;;;;;56.10;24.88;;;;;;;;;;4998296;28;20393;-75
2021/12/19 15:29:44;;;;;;;42.13;20.98;;;;;;;;;;4998912;28;20046;-76